Time;durP1;ratioP1;P1;durP2;ratioP2;P2;SDS_P1;SDS_P2;PMS_P1;PMS_P2;Temp;Humidity;BMP_temperature;BMP_pressure;BME280_temperature;BME280_humidity;BME280_pressure;Samples;Min_cycle;Max_cycle;Signal;HPM_P1;HPM_P2
2023/07/30 05:58:14;;;;;;;;;;;20.40;75.90;;;19.74;nan;96051.88;6199704;23;20236;-92
2023/07/30 06:00:51;;;;;;;;;;;20.40;75.80;;;19.77;nan;96065.09;6147675;23;19924;-92
2023/07/30 06:03:25;;;;;;;;;;;20.40;76.10;;;19.82;nan;96059.34;6147276;23;19920;-93
2023/07/30 06:10:03;;;;;;;;;;;20.50;74.80;;;19.93;nan;96052.31;6197089;23;20347;-92
2023/07/30 06:16:01;;;;;;;;;;;20.60;74.70;;;20.08;nan;96050.91;6124194;23;19920;-92
2023/07/30 06:18:33;;;;;;;;;;;20.60;74.20;;;20.18;nan;96051.66;6123728;23;19968;-92
2023/07/30 06:21:06;;;;;;;;;;;20.70;74.00;;;20.24;nan;96040.00;6147508;23;19927;-92
2023/07/30 06:23:43;;;;;;;;;;;20.80;73.70;;;20.31;nan;96045.03;6146575;23;19927;-92
2023/07/30 06:35:42;;;;;;;;;;;;;;;;;;;;;
2023/07/30 08:46:31;;;;;;;;;;;22.30;71.70;;;21.78;nan;95981.03;6137734;23;20348;-92
2023/07/30 08:49:05;;;;;;;;;;;22.40;71.60;;;21.79;nan;95976.28;6112898;23;19928;-92
2023/07/30 08:52:00;;;;;;;;;;;22.40;71.10;;;21.75;nan;95971.38;6112957;23;19921;-92
2023/07/30 08:55:01;;;;;;;;;;;;;;;;;;;;;
2023/07/30 08:57:37;;;;;;;;;;;22.30;71.30;;;21.71;nan;95967.69;6112620;23;19920;-93
2023/07/30 09:00:14;;;;;;;;;;;22.40;72.10;;;21.72;nan;95976.84;6136463;23;19927;-92
2023/07/30 09:03:16;;;;;;;;;;;22.30;71.80;;;21.69;nan;95978.38;6113243;23;19956;-92
2023/07/30 09:05:52;;;;;;;;;;;22.30;72.40;;;21.69;nan;95972.81;6137183;23;19930;-92
2023/07/30 09:08:24;;;;;;;;;;;22.30;72.90;;;21.71;nan;95978.00;6113748;23;19921;-92
2023/07/30 09:11:05;;;;;;;;;;;22.30;73.20;;;21.72;nan;95966.53;6113111;23;19931;-92
2023/07/30 09:13:39;;;;;;;;;;;22.30;73.30;;;21.75;nan;95965.81;6112581;23;19921;-92
2023/07/30 09:16:14;;;;;;;;;;;22.40;73.40;;;21.77;nan;95968.28;6089125;23;19920;-92
2023/07/30 09:18:55;;;;;;;;;;;22.40;73.20;;;21.81;nan;95971.16;6112344;23;20367;-92
2023/07/30 09:21:38;;;;;;;;;;;22.40;73.30;;;21.83;nan;95966.06;6137552;23;19927;-92
2023/07/30 09:24:17;;;;;;;;;;;22.50;73.50;;;21.86;nan;95954.22;6135812;23;19920;-92
2023/07/30 09:26:52;;;;;;;;;;;22.40;73.80;;;21.88;nan;95957.47;6113593;23;19921;-92
2023/07/30 09:29:22;;;;;;;;;;;22.50;73.60;;;21.89;nan;95959.06;6112876;23;19920;-92
2023/07/30 09:31:55;;;;;;;;;;;22.50;73.20;;;21.89;nan;95945.13;6136707;23;19920;-92
2023/07/30 09:34:26;;;;;;;;;;;22.50;72.70;;;21.86;nan;95943.06;6110522;23;19932;-92
2023/07/30 09:36:58;;;;;;;;;;;22.50;72.50;;;21.85;nan;95953.38;6112825;23;19940;-93
2023/07/30 09:39:28;;;;;;;;;;;22.50;72.90;;;21.83;nan;95950.13;6138068;23;19928;-92
2023/07/30 09:42:02;;;;;;;;;;;22.50;72.60;;;21.82;nan;95947.72;6137592;23;20358;-93
2023/07/30 09:44:33;;;;;;;;;;;22.50;72.10;;;21.80;nan;95950.88;6112126;23;19920;-93
2023/07/30 09:47:05;;;;;;;;;;;22.50;71.20;;;21.77;nan;95946.78;6137171;23;20260;-93
2023/07/30 09:49:41;;;;;;;;;;;22.40;71.60;;;21.75;nan;95932.38;6112861;23;19920;-93
2023/07/30 09:52:13;;;;;;;;;;;22.40;71.60;;;21.74;nan;95935.53;6112889;23;19925;-93
2023/07/30 09:54:43;;;;;;;;;;;22.40;71.30;;;21.72;nan;95921.97;6112465;23;19925;-92
2023/07/30 09:57:18;;;;;;;;;;;22.40;71.20;;;21.71;nan;95914.75;6112407;23;19928;-92
2023/07/30 09:59:48;;;;;;;;;;;22.40;70.80;;;21.72;nan;95921.97;6112846;23;20351;-93
2023/07/30 10:02:18;;;;;;;;;;;22.40;71.00;;;21.70;nan;95915.09;6089000;23;19928;-93
2023/07/30 10:04:51;;;;;;;;;;;22.40;70.70;;;21.72;nan;95916.38;6111935;23;19921;-92
2023/07/30 10:07:23;;;;;;;;;;;22.40;70.60;;;21.69;nan;95905.94;6113353;23;20229;-93
2023/07/30 10:09:57;;;;;;;;;;;22.40;70.20;;;21.69;nan;95910.69;6112808;23;20332;-93
2023/07/30 10:12:30;;;;;;;;;;;22.40;70.20;;;21.67;nan;95905.47;6112667;23;19921;-92
2023/07/30 10:15:02;;;;;;;;;;;22.30;70.10;;;21.64;nan;95900.59;6111711;23;19921;-92
2023/07/30 10:17:36;;;;;;;;;;;22.30;70.50;;;21.61;nan;95904.09;6088816;23;19921;-93
2023/07/30 10:20:24;;;;;;;;;;;22.30;70.40;;;21.59;nan;95898.03;6137060;23;20360;-93
2023/07/30 10:22:54;;;;;;;;;;;22.30;70.70;;;21.59;nan;95889.69;6136766;23;19921;-92
2023/07/30 10:25:24;;;;;;;;;;;22.30;70.60;;;21.58;nan;95900.00;6136768;23;19935;-93
2023/07/30 10:27:54;;;;;;;;;;;22.20;70.40;;;21.58;nan;95893.63;6088733;23;19925;-92
2023/07/30 10:30:23;;;;;;;;;;;22.20;70.50;;;21.59;nan;95890.50;6065405;23;19924;-92
2023/07/30 10:33:03;;;;;;;;;;;22.20;70.80;;;21.60;nan;95885.75;6136650;23;19927;-92
2023/07/30 10:35:45;;;;;;;;;;;22.20;70.60;;;21.61;nan;95879.03;6112043;23;19920;-92
2023/07/30 10:38:15;;;;;;;;;;;22.20;70.90;;;21.63;nan;95879.47;6112646;23;19921;-92
2023/07/30 10:40:59;;;;;;;;;;;22.30;71.10;;;21.65;nan;95873.56;6136554;23;19921;-92
2023/07/30 10:43:31;;;;;;;;;;;22.30;71.20;;;21.66;nan;95859.28;6112534;23;19921;-92
2023/07/30 10:46:05;;;;;;;;;;;22.30;71.00;;;21.70;nan;95863.00;6112908;23;19927;-92
2023/07/30 10:48:39;;;;;;;;;;;22.30;70.70;;;21.73;nan;95856.72;6112667;23;19921;-93
2023/07/30 10:51:14;;;;;;;;;;;22.40;70.60;;;21.76;nan;95855.19;6113250;23;19920;-92
2023/07/30 10:53:52;;;;;;;;;;;22.40;70.60;;;21.76;nan;95847.63;6088640;23;19925;-93
2023/07/30 10:56:40;;;;;;;;;;;22.40;70.60;;;21.79;nan;95856.47;6112472;23;19928;-92
2023/07/30 10:59:11;;;;;;;;;;;22.40;70.40;;;21.79;nan;95856.47;6113178;23;19921;-92
2023/07/30 11:01:41;;;;;;;;;;;22.40;70.10;;;21.80;nan;95849.72;6088204;23;19925;-93
2023/07/30 11:04:14;;;;;;;;;;;22.40;69.90;;;21.79;nan;95853.66;6135645;23;19921;-92
2023/07/30 11:06:48;;;;;;;;;;;22.40;69.80;;;21.80;nan;95842.19;6112501;23;19928;-92
2023/07/30 11:09:21;;;;;;;;;;;22.50;69.60;;;21.83;nan;95849.03;6112577;23;19943;-92
2023/07/30 11:11:56;;;;;;;;;;;22.50;69.50;;;21.84;nan;95845.06;6111776;23;22418;-93
2023/07/30 11:17:14;;;;;;;;;;;22.50;69.20;;;21.84;nan;95839.50;6137061;23;19928;-92
2023/07/30 11:19:44;;;;;;;;;;;22.50;69.10;;;21.84;nan;95837.53;6112017;23;20333;-92
2023/07/30 11:22:17;;;;;;;;;;;22.50;69.00;;;21.81;nan;95827.09;6112561;23;20109;-93
2023/07/30 11:24:47;;;;;;;;;;;22.50;69.10;;;21.81;nan;95826.28;6112237;23;19924;-92
2023/07/30 11:27:17;;;;;;;;;;;22.50;69.20;;;21.77;nan;95826.97;6112681;23;19927;-92
2023/07/30 11:29:55;;;;;;;;;;;22.40;69.20;;;21.73;nan;95828.88;6112240;23;19921;-92
2023/07/30 11:32:29;;;;;;;;;;;22.40;69.50;;;21.73;nan;95820.50;6113404;23;19928;-93
2023/07/30 11:35:01;;;;;;;;;;;22.40;69.70;;;21.74;nan;95824.91;6136265;23;19920;-92
2023/07/30 11:37:34;;;;;;;;;;;22.40;69.80;;;21.76;nan;95822.56;6136381;23;20229;-92
2023/07/30 11:40:03;;;;;;;;;;;22.40;69.50;;;21.75;nan;95829.28;6112509;23;19973;-93
2023/07/30 11:42:34;;;;;;;;;;;22.40;69.40;;;21.76;nan;95822.56;6088246;23;19921;-93
2023/07/30 11:45:25;;;;;;;;;;;22.40;69.40;;;21.77;nan;95829.75;6111720;23;20260;-92
2023/07/30 11:48:01;;;;;;;;;;;22.40;69.30;;;21.75;nan;95817.34;6135810;23;19924;-92
2023/07/30 11:50:30;;;;;;;;;;;22.40;69.40;;;21.76;nan;95818.97;6114027;23;19954;-92
2023/07/30 11:53:00;;;;;;;;;;;22.40;69.20;;;21.73;nan;95814.94;6087262;23;19928;-92
2023/07/30 11:55:38;;;;;;;;;;;22.40;69.20;;;21.72;nan;95806.91;6112057;23;19966;-92
2023/07/30 11:58:06;;;;;;;;;;;22.40;69.30;;;21.69;nan;95810.38;6111935;23;19920;-92
2023/07/30 12:00:35;;;;;;;;;;;22.40;69.40;;;21.68;nan;95806.00;6135666;23;19928;-92
2023/07/30 12:03:04;;;;;;;;;;;22.30;69.50;;;21.68;nan;95806.00;6112218;23;19932;-92
2023/07/30 12:05:34;;;;;;;;;;;22.30;69.60;;;21.65;nan;95799.16;6112087;23;19928;-92
2023/07/30 12:08:06;;;;;;;;;;;22.30;70.60;;;21.66;nan;95791.63;6136229;23;19924;-92
2023/07/30 12:10:45;;;;;;;;;;;22.30;70.10;;;21.65;nan;95799.16;6112197;23;20375;-92
2023/07/30 12:13:16;;;;;;;;;;;22.30;70.10;;;21.64;nan;95796.72;6111840;23;19925;-92
2023/07/30 12:15:46;;;;;;;;;;;22.30;70.10;;;21.65;nan;95781.63;6111825;23;19925;-92
2023/07/30 12:18:16;;;;;;;;;;;22.30;70.30;;;21.64;nan;95786.38;6087897;23;19920;-92
2023/07/30 12:20:47;;;;;;;;;;;22.30;70.30;;;21.64;nan;95783.59;6112091;23;19929;-92
2023/07/30 12:23:20;;;;;;;;;;;22.30;70.30;;;21.64;nan;95780.81;6088557;23;19921;-92
2023/07/30 12:25:49;;;;;;;;;;;22.30;70.10;;;21.64;nan;95766.88;6087576;23;19921;-92
2023/07/30 12:28:18;;;;;;;;;;;22.30;70.20;;;21.67;nan;95773.75;6064126;23;19936;-92
2023/07/30 12:30:49;;;;;;;;;;;22.30;70.00;;;21.67;nan;95771.75;6088138;23;19921;-93
2023/07/30 12:33:18;;;;;;;;;;;22.30;69.90;;;21.69;nan;95775.00;6111599;23;19921;-92
2023/07/30 12:35:49;;;;;;;;;;;22.30;69.80;;;21.73;nan;95773.13;6087281;23;19932;-93
2023/07/30 12:38:23;;;;;;;;;;;22.40;69.60;;;21.75;nan;95773.56;6137284;23;20325;-92
2023/07/30 12:40:52;;;;;;;;;;;22.40;69.60;;;21.76;nan;95769.63;6111555;23;19921;-92
2023/07/30 12:43:21;;;;;;;;;;;22.40;69.50;;;21.77;nan;95770.44;6135622;23;19920;-93
2023/07/30 12:45:50;;;;;;;;;;;22.40;69.40;;;21.76;nan;95760.47;6111907;23;19921;-92
2023/07/30 12:48:19;;;;;;;;;;;22.40;69.50;;;21.77;nan;95768.47;6063720;23;19936;-92
2023/07/30 12:50:50;;;;;;;;;;;22.40;69.50;;;21.75;nan;95762.44;6088343;23;20278;-92
2023/07/30 12:53:19;;;;;;;;;;;22.40;69.50;;;21.74;nan;95758.06;6112822;23;19928;-92
2023/07/30 12:55:51;;;;;;;;;;;22.40;69.60;;;21.75;nan;95756.06;6113022;23;19928;-92
2023/07/30 12:58:19;;;;;;;;;;;22.40;70.00;;;21.76;nan;95752.91;6089467;23;20264;-92
2023/07/30 13:00:48;;;;;;;;;;;22.40;69.60;;;21.79;nan;95747.78;6112719;23;19921;-92
2023/07/30 13:03:17;;;;;;;;;;;22.40;69.60;;;21.80;nan;95753.03;6087341;23;19921;-92
2023/07/30 13:05:55;;;;;;;;;;;22.40;69.30;;;21.83;nan;95743.94;6065181;23;19931;-93
2023/07/30 13:08:24;;;;;;;;;;;22.50;68.70;;;21.85;nan;95740.81;6069705;23;19928;-92
2023/07/30 13:10:54;;;;;;;;;;;22.50;68.60;;;21.87;nan;95733.72;6089057;23;19921;-92
2023/07/30 13:13:23;;;;;;;;;;;22.50;68.70;;;21.88;nan;95737.31;6112764;23;19928;-92
2023/07/30 13:15:52;;;;;;;;;;;22.50;68.40;;;21.88;nan;95723.41;6113363;23;19927;-92
2023/07/30 13:18:22;;;;;;;;;;;22.50;69.20;;;21.88;nan;95720.59;6112608;23;19920;-92
2023/07/30 13:20:51;;;;;;;;;;;22.50;68.40;;;21.87;nan;95727.34;6089349;23;19921;-92
2023/07/30 13:23:20;;;;;;;;;;;22.50;68.50;;;21.85;nan;95724.88;6088832;23;19920;-92
2023/07/30 13:25:51;;;;;;;;;;;22.50;68.80;;;21.83;nan;95718.84;6113038;23;19928;-92
2023/07/30 13:28:23;;;;;;;;;;;22.50;68.80;;;21.79;nan;95709.63;6112957;23;19925;-92
2023/07/30 13:30:52;;;;;;;;;;;22.40;69.00;;;21.77;nan;95711.94;6089149;23;20256;-92
2023/07/30 13:33:21;;;;;;;;;;;22.40;69.20;;;21.74;nan;95705.13;6113010;23;19920;-92
2023/07/30 13:35:51;;;;;;;;;;;22.40;69.30;;;21.74;nan;95707.06;6112923;23;19944;-92
2023/07/30 13:38:22;;;;;;;;;;;22.40;69.70;;;21.74;nan;95713.47;6134481;23;19925;-92
2023/07/30 13:40:50;;;;;;;;;;;22.40;69.80;;;21.73;nan;95717.41;6135672;23;20483;-92
2023/07/30 13:43:21;;;;;;;;;;;22.40;69.50;;;21.70;nan;95698.63;6112054;23;19921;-92
2023/07/30 13:45:52;;;;;;;;;;;22.40;69.60;;;21.70;nan;95706.16;6136042;23;20337;-92
2023/07/30 13:48:21;;;;;;;;;;;22.30;69.70;;;21.69;nan;95710.09;6112198;23;20414;-92
2023/07/30 13:50:50;;;;;;;;;;;22.30;69.80;;;21.66;nan;95708.84;6112379;23;19921;-92
2023/07/30 13:53:19;;;;;;;;;;;22.30;70.00;;;21.66;nan;95710.84;6088488;23;19921;-92
2023/07/30 13:55:47;;;;;;;;;;;22.30;70.00;;;21.64;nan;95708.38;6088325;23;19924;-92
2023/07/30 13:58:15;;;;;;;;;;;22.30;70.10;;;21.64;nan;95708.38;6112488;23;19924;-92
2023/07/30 14:00:48;;;;;;;;;;;22.30;70.20;;;21.63;nan;95706.75;6136483;23;19921;-92
2023/07/30 14:03:17;;;;;;;;;;;22.30;70.30;;;21.63;nan;95712.34;6137020;23;19920;-92
2023/07/30 14:05:45;;;;;;;;;;;22.30;70.50;;;21.62;nan;95710.75;6088089;23;19932;-92
2023/07/30 14:08:13;;;;;;;;;;;22.30;70.60;;;21.63;nan;95703.97;6112611;23;19920;-92
2023/07/30 14:10:42;;;;;;;;;;;22.30;70.70;;;21.63;nan;95700.41;6112718;23;19928;-92
2023/07/30 14:13:11;;;;;;;;;;;22.20;70.80;;;21.63;nan;95701.19;6112031;23;19927;-92
2023/07/30 14:15:41;;;;;;;;;;;22.30;71.10;;;21.63;nan;95695.63;6065423;23;19921;-92
2023/07/30 14:18:26;;;;;;;;;;;22.30;71.20;;;21.63;nan;95692.03;6112630;23;19921;-92
2023/07/30 14:20:55;;;;;;;;;;;22.30;71.30;;;21.61;nan;95682.06;6138159;23;19921;-92
2023/07/30 14:23:23;;;;;;;;;;;22.30;71.20;;;21.62;nan;95682.88;6064416;23;19921;-92
2023/07/30 14:25:52;;;;;;;;;;;22.30;71.20;;;21.62;nan;95680.09;6112934;23;19928;-92
2023/07/30 14:28:24;;;;;;;;;;;22.20;71.20;;;21.61;nan;95672.91;6112883;23;19928;-92
2023/07/30 14:30:54;;;;;;;;;;;22.20;71.30;;;21.60;nan;95671.28;6089672;23;19920;-92
2023/07/30 14:33:24;;;;;;;;;;;22.20;71.60;;;21.61;nan;95670.13;6112238;23;19920;-92
2023/07/30 14:35:53;;;;;;;;;;;22.20;71.80;;;21.60;nan;95662.94;6112578;23;19920;-92
2023/07/30 14:38:21;;;;;;;;;;;22.20;72.20;;;21.60;nan;95662.94;6112474;23;20241;-92
2023/07/30 14:40:55;;;;;;;;;;;22.30;72.50;;;21.62;nan;95660.59;6088800;23;19921;-92
2023/07/30 14:43:24;;;;;;;;;;;22.20;72.60;;;21.61;nan;95659.78;6088005;23;19930;-92
2023/07/30 14:45:53;;;;;;;;;;;22.30;73.10;;;21.62;nan;95657.81;6112678;23;19920;-92
2023/07/30 14:48:23;;;;;;;;;;;22.20;73.30;;;21.63;nan;95662.19;6112825;23;19921;-92
2023/07/30 14:50:52;;;;;;;;;;;22.20;73.20;;;21.63;nan;95650.25;6112956;23;19920;-92
2023/07/30 14:53:26;;;;;;;;;;;22.20;73.30;;;21.63;nan;95655.81;6112247;23;19927;-92
2023/07/30 14:55:54;;;;;;;;;;;22.30;73.50;;;21.63;nan;95655.81;6136352;23;20260;-92
2023/07/30 14:58:23;;;;;;;;;;;22.30;73.50;;;21.62;nan;95660.59;6112827;23;19928;-92
2023/07/30 15:00:52;;;;;;;;;;;22.20;73.40;;;21.63;nan;95658.63;6113329;23;20260;-92
2023/07/30 15:03:21;;;;;;;;;;;22.20;73.50;;;21.61;nan;95647.84;6088664;23;19921;-92
2023/07/30 15:05:51;;;;;;;;;;;22.20;73.50;;;21.61;nan;95657.00;6112425;23;19921;-92
2023/07/30 15:08:20;;;;;;;;;;;22.20;73.50;;;21.60;nan;95649.81;6112859;23;19943;-92
2023/07/30 15:10:48;;;;;;;;;;;22.20;73.70;;;21.61;nan;95654.22;6112502;23;19920;-92
2023/07/30 15:13:16;;;;;;;;;;;22.20;73.50;;;21.59;nan;95652.91;6111890;23;19920;-92
2023/07/30 15:15:45;;;;;;;;;;;22.20;73.40;;;21.59;nan;95661.28;6112189;23;19927;-92
2023/07/30 15:18:13;;;;;;;;;;;22.20;73.30;;;21.58;nan;95668.00;6112209;23;19928;-91
2023/07/30 15:20:42;;;;;;;;;;;22.20;73.30;;;21.58;nan;95670.78;6112660;23;19928;-92
2023/07/30 15:23:13;;;;;;;;;;;22.20;74.50;;;21.58;nan;95677.16;6087894;23;20367;-92
2023/07/30 15:25:42;;;;;;;;;;;22.20;73.70;;;21.59;nan;95683.56;6112451;23;20359;-92
2023/07/30 15:42:19;;;;;;;;;;;22.20;72.10;;;21.53;66.14;95746.22;4253601;32;2142527;-89
2023/07/30 15:44:48;;;;;;;;;;;22.10;72.70;;;21.49;66.11;95779.56;5023895;28;35594;-87
2023/07/30 15:47:17;;;;;;;;;;;22.10;73.10;;;21.46;67.16;95792.22;5053574;28;19925;-87
2023/07/30 15:49:46;;;;;;;;;;;22.10;73.80;;;21.41;67.43;95795.25;5043282;28;20422;-87
2023/07/30 15:52:14;;;;;;;;;;;22.00;74.10;;;21.36;67.80;95806.63;5067730;28;19924;-86
2023/07/30 15:54:42;;;;;;;;;;;22.00;74.10;;;21.34;67.83;95822.88;5033684;28;19928;-86
2023/07/30 15:57:14;;;;;;;;;;;22.00;74.50;;;21.28;68.08;95841.78;5055343;28;19928;-86
2023/07/30 16:03:43;;;;;;;;;;;21.90;75.10;;;21.19;68.87;95845.84;5061367;23;19925;-86
2023/07/30 16:06:11;;;;;;;;;;;21.80;75.70;;;21.13;69.24;95848.06;5016253;28;19925;-86
2023/07/30 16:08:40;;;;;;;;;;;21.80;76.40;;;21.10;69.31;95840.41;5000302;28;20414;-85
2023/07/30 16:11:08;;;;;;;;;;;21.70;76.40;;;21.06;69.65;95829.16;5019220;28;19925;-86
2023/07/30 16:13:36;;;;;;;;;;;21.70;76.50;;;21.04;69.81;95813.97;5035796;28;19925;-85
2023/07/30 16:16:11;;;;;;;;;;;21.60;76.70;;;21.02;69.96;95788.47;5019346;28;19932;-85
2023/07/30 16:18:40;;;;;;;;;;;21.60;76.80;;;20.98;69.82;95785.53;5019345;28;20036;-86
2023/07/30 16:21:10;;;;;;;;;;;21.60;76.80;;;20.99;69.58;95767.69;5019125;28;19925;-86
2023/07/30 16:23:38;;;;;;;;;;;21.60;76.50;;;21.00;69.34;95758.19;5019579;28;20387;-86
2023/07/30 16:26:06;;;;;;;;;;;21.60;76.40;;;21.02;69.25;95767.00;5003044;28;20307;-86
2023/07/30 16:28:34;;;;;;;;;;;21.60;76.30;;;21.00;69.10;95753.44;5019037;28;19929;-86
2023/07/30 16:31:02;;;;;;;;;;;21.60;76.20;;;21.03;69.25;95746.34;5007918;28;19925;-86
2023/07/30 16:33:31;;;;;;;;;;;21.60;76.10;;;21.02;69.06;95733.59;5014990;28;19925;-86
2023/07/30 16:36:01;;;;;;;;;;;21.60;75.90;;;21.05;68.85;95732.09;5019100;28;19932;-86
2023/07/30 16:38:30;;;;;;;;;;;21.70;75.90;;;21.06;69.47;95723.41;5019177;28;19925;-86
2023/07/30 16:41:00;;;;;;;;;;;21.70;76.40;;;21.06;68.95;95726.19;5035573;28;19925;-86
2023/07/30 16:43:28;;;;;;;;;;;21.70;76.30;;;21.04;68.74;95717.38;5005503;28;19925;-86
2023/07/30 16:45:59;;;;;;;;;;;21.70;75.70;;;21.05;69.88;95719.00;5005899;28;19932;-86
2023/07/30 16:48:27;;;;;;;;;;;21.70;76.70;;;21.03;69.71;95721.31;5005530;28;19925;-86
2023/07/30 16:50:55;;;;;;;;;;;21.60;76.70;;;21.01;69.85;95726.41;5005801;28;20307;-87
2023/07/30 16:53:23;;;;;;;;;;;21.60;76.90;;;20.97;70.08;95731.06;5005817;28;19925;-86
2023/07/30 16:55:53;;;;;;;;;;;21.60;77.10;;;20.95;70.24;95733.38;4989416;28;19925;-86
2023/07/30 16:58:22;;;;;;;;;;;21.50;77.20;;;20.88;70.44;95733.97;5022076;28;19929;-86
2023/07/30 17:00:50;;;;;;;;;;;21.50;77.50;;;20.87;70.15;95742.66;5005838;28;19925;-86
2023/07/30 17:03:18;;;;;;;;;;;21.40;77.20;;;20.82;70.06;95741.75;5005515;28;20413;-86
2023/07/30 17:05:46;;;;;;;;;;;21.40;77.20;;;20.77;70.12;95741.97;4989148;28;20391;-87
2023/07/30 17:08:15;;;;;;;;;;;21.40;77.30;;;20.72;70.55;95739.38;5005687;28;20011;-87
2023/07/30 17:10:46;;;;;;;;;;;21.30;77.80;;;20.70;71.04;95755.63;5005150;28;19932;-87
2023/07/30 17:13:15;;;;;;;;;;;21.30;78.20;;;20.68;70.88;95757.94;5005008;28;19933;-87
2023/07/30 17:15:44;;;;;;;;;;;21.30;78.40;;;20.64;70.69;95755.06;5005603;28;20383;-87
2023/07/30 17:18:14;;;;;;;;;;;21.20;77.80;;;20.60;70.34;95772.75;5005784;28;20577;-87
2023/07/30 17:20:42;;;;;;;;;;;21.20;77.60;;;20.59;70.71;95783.09;5005405;28;19925;-87
2023/07/30 17:23:11;;;;;;;;;;;21.20;77.70;;;20.56;70.46;95788.53;4989069;28;19926;-87
2023/07/30 17:25:39;;;;;;;;;;;21.10;77.80;;;20.52;70.85;95782.84;4997060;28;19933;-87
2023/07/30 17:28:07;;;;;;;;;;;21.10;78.00;;;20.50;70.94;95780.41;5005397;28;19925;-86
2023/07/30 17:30:42;;;;;;;;;;;21.10;78.20;;;20.47;71.05;95781.09;5005043;28;19929;-87
2023/07/30 17:33:10;;;;;;;;;;;21.10;78.50;;;20.47;70.98;95781.09;4981756;28;19925;-87
2023/07/30 17:35:39;;;;;;;;;;;21.10;78.40;;;20.44;71.03;95780.97;5005236;28;19925;-87
2023/07/30 17:38:13;;;;;;;;;;;21.00;78.30;;;20.41;71.18;95793.59;4989005;28;19932;-87
2023/07/30 17:40:51;;;;;;;;;;;21.00;78.30;;;20.37;71.47;95801.81;5005191;28;19925;-87
2023/07/30 17:43:22;;;;;;;;;;;21.00;78.70;;;20.34;71.55;95794.16;5018458;28;19932;-87
2023/07/30 17:45:52;;;;;;;;;;;20.90;78.90;;;20.34;71.60;95813.63;5004820;28;20306;-87
2023/07/30 17:48:20;;;;;;;;;;;20.90;79.20;;;20.32;71.99;95829.03;5005030;28;19926;-87
2023/07/30 17:50:48;;;;;;;;;;;20.90;79.30;;;20.32;71.96;95829.03;5004562;28;20303;-87
2023/07/30 17:53:17;;;;;;;;;;;20.90;79.30;;;20.27;71.99;95824.47;4987805;28;19925;-87
2023/07/30 17:55:48;;;;;;;;;;;20.90;79.50;;;20.27;72.34;95832.81;4973985;28;19932;-87
2023/07/30 17:58:16;;;;;;;;;;;20.90;79.60;;;20.28;72.44;95833.66;5020806;28;19929;-87
2023/07/30 18:00:47;;;;;;;;;;;20.90;79.60;;;20.28;72.40;95833.66;5004788;28;19925;-87
2023/07/30 18:03:17;;;;;;;;;;;20.90;79.80;;;20.28;72.46;95839.19;5020552;28;19929;-87
2023/07/30 18:05:47;;;;;;;;;;;20.90;80.00;;;20.29;72.45;95843.63;5005022;28;19929;-87
2023/07/30 18:08:16;;;;;;;;;;;20.90;80.30;;;20.29;72.60;95840.84;5021806;28;20315;-87
2023/07/30 18:10:47;;;;;;;;;;;20.90;80.20;;;20.28;72.43;95836.44;5022244;28;19925;-86
2023/07/30 18:13:15;;;;;;;;;;;20.90;80.00;;;20.28;72.55;95851.13;5004604;28;19932;-87
2023/07/30 18:15:43;;;;;;;;;;;20.90;80.20;;;20.28;72.74;95840.00;5004715;28;19925;-86
2023/07/30 18:18:24;;;;;;;;;;;20.90;80.40;;;20.30;72.89;95843.25;5021050;28;19926;-86
2023/07/30 18:20:55;;;;;;;;;;;20.90;80.30;;;20.34;72.35;95837.81;4988336;28;19925;-86
2023/07/30 18:23:24;;;;;;;;;;;20.90;79.90;;;20.35;72.35;95840.28;4988346;28;19932;-86
2023/07/30 18:25:55;;;;;;;;;;;20.90;79.80;;;20.38;72.63;95856.28;5004704;28;20395;-86
2023/07/30 18:28:23;;;;;;;;;;;20.90;80.10;;;20.38;72.86;95849.88;5003518;28;19932;-87
2023/07/30 18:30:53;;;;;;;;;;;21.00;80.30;;;20.38;72.88;95864.63;5004351;28;19925;-87
2023/07/30 18:33:24;;;;;;;;;;;21.00;80.40;;;20.36;73.15;95854.97;4988009;28;19932;-86
2023/07/30 18:35:57;;;;;;;;;;;21.00;80.60;;;20.35;73.24;95853.34;5004579;28;20392;-87
2023/07/30 18:38:26;;;;;;;;;;;20.90;80.50;;;20.36;72.61;95853.03;5021034;28;19925;-86
2023/07/30 18:41:10;;;;;;;;;;;21.00;80.20;;;20.36;72.84;95852.19;5020511;28;19973;-88
2023/07/30 18:43:38;;;;;;;;;;;20.90;80.20;;;20.37;72.62;95862.16;4987691;28;20288;-86
2023/07/30 18:46:13;;;;;;;;;;;21.00;80.30;;;20.38;72.98;95869.34;5004317;28;19930;-87
2023/07/30 18:49:04;;;;;;;;;;;20.90;80.50;;;20.35;73.11;95881.97;5003977;28;19926;-87
2023/07/30 18:51:32;;;;;;;;;;;21.00;80.50;;;20.34;72.93;95876.75;5018871;28;19925;-87
2023/07/30 18:54:01;;;;;;;;;;;20.90;80.40;;;20.33;72.80;95869.56;5004306;28;20402;-87
2023/07/30 18:56:31;;;;;;;;;;;20.90;80.40;;;20.35;72.57;95878.38;5020124;28;19925;-87
2023/07/30 18:59:06;;;;;;;;;;;20.90;80.10;;;20.34;72.34;95876.75;5004139;28;19929;-86
2023/07/30 19:01:38;;;;;;;;;;;21.00;79.80;;;20.37;72.30;95895.53;4987579;28;19948;-87
2023/07/30 19:04:08;;;;;;;;;;;20.90;79.60;;;20.39;72.16;95893.22;5003981;28;19936;-87
2023/07/30 19:06:39;;;;;;;;;;;21.00;79.40;;;20.44;72.23;95901.34;5003851;28;19925;-86
2023/07/30 19:09:07;;;;;;;;;;;21.00;79.50;;;20.43;72.12;95907.25;5003874;28;20387;-86
2023/07/30 19:11:36;;;;;;;;;;;21.00;79.40;;;20.45;72.43;95918.84;4971844;28;20323;-87
2023/07/30 19:14:11;;;;;;;;;;;21.10;79.90;;;20.45;72.25;95918.84;5019967;28;19925;-87
2023/07/30 19:16:50;;;;;;;;;;;21.00;79.50;;;20.43;72.17;95921.97;5003947;28;20386;-87
2023/07/30 19:19:42;;;;;;;;;;;21.10;79.50;;;20.43;72.40;95915.56;4988053;28;19925;-87
2023/07/30 19:22:36;;;;;;;;;;;21.00;79.70;;;20.43;72.69;95915.56;5020569;28;19944;-87
2023/07/30 19:25:10;;;;;;;;;;;21.00;80.00;;;20.40;72.70;95922.66;5003837;28;20318;-86
2023/07/30 19:27:42;;;;;;;;;;;21.00;80.00;;;20.39;72.76;95918.22;5003987;28;20295;-86
2023/07/30 19:30:13;;;;;;;;;;;21.00;80.10;;;20.38;72.82;95919.38;4987774;28;19925;-87
2023/07/30 19:32:42;;;;;;;;;;;20.90;80.30;;;20.36;72.72;95922.53;5003315;28;20559;-87
2023/07/30 19:35:15;;;;;;;;;;;21.00;80.00;;;20.37;72.56;95934.44;5003879;28;19925;-87
2023/07/30 19:37:44;;;;;;;;;;;21.00;80.00;;;20.36;72.91;95932.81;5003433;28;20395;-87
2023/07/30 19:40:28;;;;;;;;;;;21.00;80.50;;;20.38;72.41;95938.84;5002808;28;19926;-87
2023/07/30 19:46:17;;;;;;;;;;;20.90;80.00;;;20.37;72.57;95942.78;5003626;28;20394;-87
2023/07/30 19:49:32;;;;;;;;;;;20.90;80.00;;;20.36;72.57;95944.75;5003711;28;19932;-87
2023/07/30 19:52:36;;;;;;;;;;;21.00;79.90;;;20.42;72.41;95950.94;5002943;28;19925;-87
2023/07/30 19:56:14;;;;;;;;;;;21.00;79.60;;;20.45;72.29;95949.41;4997430;28;20404;-87
2023/07/30 19:59:12;;;;;;;;;;;21.00;79.70;;;20.39;72.34;95937.69;4984892;28;19932;-87
2023/07/30 20:38:02;;;;;;;;;;;20.70;80.70;;;20.14;73.00;95912.56;4909547;28;19926;-87
2023/07/30 20:40:47;;;;;;;;;;;20.70;80.60;;;20.13;73.04;95916.50;4946858;28;19926;-87
2023/07/30 20:47:05;;;;;;;;;;;20.70;80.80;;;20.11;73.23;95904.91;4954447;28;20022;-87
2023/07/30 20:49:40;;;;;;;;;;;20.70;80.60;;;20.13;73.28;95899.81;4966098;28;19926;-87
2023/07/30 20:52:34;;;;;;;;;;;20.70;80.60;;;20.10;73.38;95894.16;4984993;28;19926;-87
2023/07/30 20:59:23;;;;;;;;;;;;;;;;;;;;;
